Airfield :
LOGIN :

Register | Disclaimer

   EN    FR    IT 

 










Legend :    VFR   Marginal VFR   IFR   Intensive IFR   Very Intensive IFR
Visi :
Ceiling :
>= 8 km
>= 3000ft
5 to 8 km
1000 to 3000 ft
1500m to 5 km
500 to 1000 ft
800 to 1500m
200 to 500 ft
< 800m
< 200 ft
Symbols :   Thunderstorms  Fog  Heavy snow  Heavy precipitations  Wind > 20 kt
SIGMETs :     Misc.  Thunderstorms  Icing  Turbulence  Mountain Waves  Volcanic Ashes






- Airport Elevation : 1470 ft
- IATA code : KLU


LOWK - Klagenfurt

CURRENT METAR :
  • 190950Z 21004KT 150V310 9999 FEW060 28/17 Q1016 NOSIG

EXPIRED METARs :
  • 190920Z 25005KT 190V320 9999 FEW060 27/16 Q1017 NOSIG
  • 190850Z 27004KT 190V340 9999 FEW060 26/17 Q1017 NOSIG
  • 190820Z 20004KT 120V270 9999 FEW060 25/15 Q1017 NOSIG
  • 190750Z VRB02KT 9999 FEW060 25/16 Q1017 NOSIG
  • 190720Z VRB03KT 9999 FEW060 24/16 Q1018 NOSIG
  • 190650Z 33003KT 220V030 9999 FEW060 24/16 Q1018 NOSIG

TAF TAF LOWK
Valid from the 19 at 06:00 until the 20 at 06:00 UTC


190515Z 1906/2006 VRB04KT 9999 FEW060 TX32/1914Z TN18/2004Z
TEMPO 1911/1919 10008KT FEW060CB
PROB30
TEMPO 1915/1918 TS



MET'MAP, your aeronautical weather chart ! - Copyright ORBIFLY December 2007 - Disclaimer

ORBIFLY MET'MAP TEAM :

Programming & Development : Alexandra Zaïnal
Concept & original design : Baudouin d'Aumeries
Assistance for programming : Marc-Olivier Méhu
Technical & hardware support : Manuel Goepfert

Contact : metmap@orbifly.com




SOURCES & CREDITS :

   NOAA